createdAt,value
2019-05-18T00:05:00.738Z,34.92
2019-05-18T00:10:06.700Z,32.97
2019-05-18T00:15:11.820Z,33.73
2019-05-18T00:20:22.585Z,34.48
2019-05-18T00:25:27.989Z,34.45
2019-05-18T00:30:33.093Z,32.55
2019-05-18T00:35:38.222Z,34.53
2019-05-18T00:40:43.265Z,36.08
2019-05-18T00:45:50.181Z,34.13
2019-05-18T00:50:55.636Z,34.58
2019-05-18T00:56:01.260Z,31.20
2019-05-18T01:01:06.813Z,29.90
2019-05-18T01:06:11.869Z,30.20
2019-05-18T01:11:17.264Z,31.30
2019-05-18T01:16:22.648Z,31.60
2019-05-18T01:21:28.137Z,32.33
2019-05-18T01:26:33.733Z,31.53
2019-05-18T01:31:38.775Z,32.78
2019-05-18T01:36:44.039Z,30.60
2019-05-18T01:41:49.059Z,30.80
2019-05-18T01:46:54.124Z,36.75
2019-05-18T01:51:59.556Z,29.92
2019-05-18T01:57:04.632Z,31.77
2019-05-18T02:02:09.736Z,31.50
2019-05-18T02:07:14.780Z,30.60
2019-05-18T02:12:20.013Z,31.85
2019-05-18T02:17:28.739Z,30.80
2019-05-18T02:22:33.813Z,31.48
2019-05-18T02:27:38.952Z,30.97
2019-05-18T02:32:44.499Z,28.30
2019-05-18T02:37:49.941Z,29.63
2019-05-18T02:42:59.552Z,29.15
2019-05-18T02:48:09.929Z,28.73
2019-05-18T02:53:15.889Z,28.83
2019-05-18T02:58:21.611Z,28.32
2019-05-18T03:03:27.379Z,25.87
2019-05-18T03:08:32.787Z,26.95
2019-05-18T03:13:37.948Z,28.57
2019-05-18T03:18:43.085Z,34.30
2019-05-18T03:23:48.162Z,37.17
2019-05-18T03:28:54.400Z,36.70
2019-05-18T03:34:00.611Z,31.12
2019-05-18T03:39:06.452Z,32.40
2019-05-18T03:44:11.542Z,28.77
2019-05-18T03:49:26.144Z,29.52
2019-05-18T03:54:23.766Z,26.85
2019-05-18T03:59:28.940Z,24.67
2019-05-18T04:04:33.993Z,23.85
2019-05-18T04:09:39.096Z,25.05
2019-05-18T04:14:45.303Z,27.50
2019-05-18T04:19:50.391Z,28.35
2019-05-18T04:24:57.057Z,28.27
2019-05-18T04:30:02.631Z,30.80
2019-05-18T04:35:10.116Z,30.63
2019-05-18T04:40:15.763Z,27.00
2019-05-18T04:45:20.831Z,28.10
2019-05-18T04:50:25.883Z,29.92
2019-05-18T04:55:30.949Z,32.53
2019-05-18T05:00:36.083Z,33.88
2019-05-18T05:05:41.122Z,31.15
2019-05-18T05:10:46.188Z,28.73
2019-05-18T05:15:52.446Z,26.20
2019-05-18T05:20:57.469Z,26.45
2019-05-18T05:26:03.882Z,26.43
2019-05-18T05:31:08.947Z,25.77
2019-05-18T05:36:14.867Z,31.37
2019-05-18T05:41:19.869Z,30.12
2019-05-18T05:46:24.914Z,26.73
2019-05-18T05:51:30.035Z,25.03
2019-05-18T05:56:35.109Z,24.82
2019-05-18T06:01:40.266Z,24.92
2019-05-18T06:06:45.281Z,26.25
2019-05-18T06:11:50.418Z,29.63
2019-05-18T06:16:55.429Z,26.77
2019-05-18T06:22:00.416Z,29.80
2019-05-18T06:27:05.866Z,25.68
2019-05-18T06:32:10.943Z,25.97
2019-05-18T06:37:16.068Z,27.03
2019-05-18T06:42:21.162Z,27.35
2019-05-18T06:47:26.210Z,26.87
2019-05-18T06:52:32.170Z,27.73
2019-05-18T06:57:38.636Z,29.93
2019-05-18T07:02:45.222Z,30.27
2019-05-18T07:07:50.723Z,34.33
2019-05-18T07:12:56.194Z,30.00
2019-05-18T07:18:01.322Z,27.58
2019-05-18T07:23:06.539Z,28.60
2019-05-18T07:28:11.730Z,29.85
2019-05-18T07:33:16.892Z,30.00
2019-05-18T07:38:22.243Z,26.55
2019-05-18T07:43:27.635Z,25.23
2019-05-18T07:48:32.763Z,24.90
2019-05-18T07:53:37.899Z,24.53
2019-05-18T07:58:45.006Z,23.87
2019-05-18T08:03:50.163Z,23.67
2019-05-18T08:08:55.234Z,27.30
2019-05-18T08:14:08.523Z,27.42
2019-05-18T08:19:15.063Z,27.05
2019-05-18T08:24:20.453Z,24.87
2019-05-18T08:29:25.518Z,25.32
2019-05-18T08:34:30.649Z,26.35
2019-05-18T08:39:36.036Z,25.87
2019-05-18T08:44:41.071Z,26.20
2019-05-18T08:49:49.200Z,25.12
2019-05-18T08:54:54.249Z,25.85
2019-05-18T09:00:01.482Z,24.30
2019-05-18T09:05:09.718Z,25.00
2019-05-18T09:10:14.882Z,23.77
2019-05-18T09:15:20.784Z,25.10
2019-05-18T09:20:26.152Z,25.70
2019-05-18T09:25:32.899Z,25.25
2019-05-18T09:30:41.206Z,24.40
2019-05-18T09:35:45.343Z,24.60
2019-05-18T09:40:50.525Z,25.43
2019-05-18T09:45:57.142Z,26.77
2019-05-18T09:51:07.695Z,25.55
2019-05-18T09:56:15.289Z,23.80
2019-05-18T10:01:21.864Z,24.32
2019-05-18T10:06:27.446Z,21.55
2019-05-18T10:11:38.488Z,22.62
2019-05-18T10:16:40.180Z,22.23
2019-05-18T10:21:45.315Z,22.97
2019-05-18T10:26:52.410Z,22.42
2019-05-18T10:32:02.927Z,22.37
2019-05-18T10:37:12.472Z,26.05
2019-05-18T10:42:19.871Z,21.63
2019-05-18T10:47:25.409Z,20.62
2019-05-18T10:52:30.875Z,21.48
2019-05-18T10:57:37.098Z,21.12
2019-05-18T11:02:42.291Z,21.07
2019-05-18T11:07:47.370Z,18.60
2019-05-18T11:12:52.865Z,19.83
2019-05-18T11:17:58.364Z,21.37
2019-05-18T11:23:03.653Z,22.48
2019-05-18T11:28:09.174Z,22.15
2019-05-18T11:33:14.338Z,24.17
2019-05-18T11:38:20.469Z,18.02
2019-05-18T11:43:25.557Z,17.48
2019-05-18T11:48:31.882Z,18.67
2019-05-18T11:53:38.898Z,18.65
2019-05-18T11:59:00.153Z,17.10
2019-05-18T12:04:06.451Z,16.02
2019-05-18T12:09:11.567Z,16.23
2019-05-18T12:14:16.730Z,16.60
2019-05-18T12:19:21.868Z,18.30
2019-05-18T12:24:27.544Z,17.23
2019-05-18T12:29:32.652Z,17.33
2019-05-18T12:34:39.588Z,16.07
2019-05-18T12:39:47.717Z,15.10
2019-05-18T12:44:53.212Z,15.55
2019-05-18T12:49:59.194Z,16.60
2019-05-18T12:55:06.282Z,16.70
2019-05-18T13:00:11.680Z,16.17
2019-05-18T13:05:16.905Z,15.18
2019-05-18T13:10:23.470Z,15.58
2019-05-18T13:15:28.492Z,15.95
2019-05-18T13:20:34.082Z,17.32
2019-05-18T13:25:39.419Z,17.07
2019-05-18T13:30:45.957Z,15.93
2019-05-18T13:35:50.987Z,15.43
2019-05-18T13:40:56.154Z,15.37
2019-05-18T13:46:01.278Z,15.55
2019-05-18T13:51:06.318Z,15.72
2019-05-18T13:56:11.527Z,16.00
2019-05-18T14:01:17.142Z,18.45
2019-05-18T14:06:22.576Z,17.07
2019-05-18T14:11:27.699Z,16.27
2019-05-18T14:16:34.292Z,18.43
2019-05-18T14:21:39.319Z,16.60
2019-05-18T14:26:44.444Z,16.50
2019-05-18T14:31:49.574Z,17.10
2019-05-18T14:36:54.605Z,16.87
2019-05-18T14:42:00.798Z,16.87
2019-05-18T14:47:06.080Z,17.53
2019-05-18T14:52:12.127Z,19.27
2019-05-18T14:57:17.476Z,18.70
2019-05-18T15:02:22.608Z,18.80
2019-05-18T15:07:27.626Z,17.85
2019-05-18T15:12:32.880Z,17.17
2019-05-18T15:17:38.214Z,17.17
2019-05-18T15:22:44.549Z,16.37
2019-05-18T15:27:49.796Z,16.50
2019-05-18T15:32:56.022Z,16.93
2019-05-18T15:38:00.940Z,19.00
2019-05-18T15:43:06.491Z,19.12
2019-05-18T15:48:11.506Z,18.10
2019-05-18T15:53:16.547Z,17.45
2019-05-18T15:58:21.714Z,18.20
2019-05-18T16:03:26.874Z,18.47
2019-05-18T16:08:32.635Z,19.75
2019-05-18T16:13:38.060Z,20.95
2019-05-18T16:18:46.385Z,19.87
2019-05-18T16:23:51.477Z,19.90
2019-05-18T16:28:56.869Z,18.90
2019-05-18T16:34:03.168Z,19.48
2019-05-18T16:39:08.650Z,20.45
2019-05-18T16:44:14.156Z,19.83
2019-05-18T16:49:20.002Z,20.15
2019-05-18T16:54:26.943Z,18.92
2019-05-18T16:59:32.496Z,18.33
2019-05-18T17:04:38.842Z,19.40
2019-05-18T17:09:43.942Z,19.02
2019-05-18T17:14:49.142Z,19.50
2019-05-18T17:19:55.221Z,19.60
2019-05-18T17:25:00.432Z,19.17
2019-05-18T17:30:10.275Z,19.00
2019-05-18T17:35:16.164Z,18.90
2019-05-18T17:40:21.822Z,19.65
2019-05-18T17:45:26.970Z,20.72
2019-05-18T17:50:32.081Z,19.60
2019-05-18T17:55:37.542Z,20.45
2019-05-18T18:00:44.730Z,20.70
2019-05-18T18:05:50.148Z,19.25
2019-05-18T18:10:55.300Z,20.52
2019-05-18T18:16:01.567Z,20.60
2019-05-18T18:21:13.338Z,18.80
2019-05-18T18:26:18.827Z,20.75
2019-05-18T18:31:25.041Z,22.73
2019-05-18T18:36:30.237Z,22.07
2019-05-18T18:41:35.334Z,21.65
2019-05-18T18:46:40.382Z,21.20
2019-05-18T18:51:45.760Z,20.50
2019-05-18T18:56:51.918Z,19.70
2019-05-18T19:01:57.217Z,21.57
2019-05-18T19:07:02.706Z,21.45
2019-05-18T19:12:07.837Z,21.27
2019-05-18T19:17:12.996Z,21.25
2019-05-18T19:22:18.311Z,21.43
2019-05-18T19:27:23.450Z,20.75
2019-05-18T19:32:28.616Z,20.87
2019-05-18T19:37:33.749Z,21.80
2019-05-18T19:42:39.223Z,21.47
2019-05-18T19:47:44.351Z,23.05
2019-05-18T19:52:54.663Z,22.95
2019-05-18T19:58:08.390Z,22.93
2019-05-18T20:03:07.587Z,23.37
2019-05-18T20:08:15.533Z,23.92
2019-05-18T20:13:20.685Z,24.40
2019-05-18T20:18:25.733Z,23.80
2019-05-18T20:23:31.993Z,23.25
2019-05-18T20:28:38.041Z,25.03
2019-05-18T20:33:43.117Z,25.23
2019-05-18T20:38:48.722Z,36.17
2019-05-18T20:43:54.743Z,40.60
2019-05-18T20:49:01.395Z,37.80
2019-05-18T20:54:07.232Z,40.23
2019-05-18T20:59:13.170Z,42.27
2019-05-18T21:04:18.326Z,45.83
2019-05-18T21:09:24.364Z,43.33
2019-05-18T21:14:30.363Z,40.43
2019-05-18T21:19:35.858Z,43.78
2019-05-18T21:24:41.324Z,44.08
2019-05-18T21:29:47.032Z,47.73
2019-05-18T21:34:53.073Z,48.45
2019-05-18T21:39:59.076Z,49.73
2019-05-18T21:45:04.706Z,49.20
2019-05-18T21:50:10.568Z,42.33
2019-05-18T21:55:15.747Z,44.10
2019-05-18T22:00:22.716Z,45.03
2019-05-18T22:05:29.496Z,46.40
2019-05-18T22:10:34.738Z,46.65
2019-05-18T22:15:39.859Z,47.93
2019-05-18T22:20:46.065Z,51.45
2019-05-18T22:25:52.297Z,49.00
2019-05-18T22:30:58.304Z,48.50
2019-05-18T22:36:03.406Z,46.73
2019-05-18T22:41:08.430Z,58.02
2019-05-18T22:46:13.434Z,48.63
2019-05-18T22:51:18.489Z,55.03
2019-05-18T22:56:23.907Z,51.87
2019-05-18T23:01:29.089Z,56.03
2019-05-18T23:06:34.242Z,51.75
2019-05-18T23:11:39.395Z,53.05
2019-05-18T23:16:45.582Z,55.25
2019-05-18T23:21:50.953Z,56.80
2019-05-18T23:26:56.040Z,58.53
2019-05-18T23:32:01.395Z,56.65
2019-05-18T23:37:06.605Z,56.90
2019-05-18T23:42:11.776Z,59.27
2019-05-18T23:47:16.824Z,63.65
2019-05-18T23:52:23.296Z,61.55
2019-05-18T23:57:28.345Z,60.83
